Ringling, MT (59642)

01:45 PM MDT on Juli 26, 2016 (GMT -0600)
Drone Mountain | | Change Station

Elev 5469 ft 46.03 °N, 110.80 °W | Updated 14 minutes ago

Clear
Cerah
82.6 °F
Feels Like 80 °F
N
4.7
Angin Variable Angin from Dari Barat ke Baratlaut

Siang Ini
High -- | Low -- °F
--% Chance of Precip.
Yesterday
High -- | Low -- °F
Precip. -- Inch
Tekanan 29.99 Inch
Jarak Pandang 10.0 Mil
Awan Cerah
Ideks Panas 80 °F
Titik Embun 41 °F
Kelembaban 23%
Rainfall 0.00 Inch
Snow Depth Not available.
5:58 AM 9:00 PM
Waning Gibbous, 51% visible
METAR KBZN 261856Z 33005KT 10SM CLR 29/09 A3013 RMK AO2 SLP155 T02890089
Tekanan 29.99 Inch
Jarak Pandang 10.0 Mil
Awan Cerah
Ideks Panas 80 °F
Titik Embun 41 °F
Kelembaban 23%
Rainfall 0.00 Inch
Snow Depth Not available.
5:58 AM 9:00 PM
Waning Gibbous, 51% visible
METAR KBZN 261856Z 33005KT 10SM CLR 29/09 A3013 RMK AO2 SLP155 T02890089

10-Day Weather Forecast

Almanac

Astronomi

Jul. 26, 2016 Rise Set
Actual Time
Civil Twilight
Nautical Twilight
Astronomical Twilight
Moon
Length Of Visible Light
Lama Satu Hari
Tomorrow will be .
, % of the Moon is Illuminated

Today's Extremes

State Highs State Lows

Community

WunderPhotos

Upload Photos

1,927,667 photos uploaded!

WunderBlog® & News

Nearby

Air Quality

  Air Quality AQ Index Pollutant
Not available.

Snow Depth

Station Depth Elevation

Earthquake Activity

City Distance Mag. Time & Date
Minimum magnitude displayed is 2.5.

Coastal Water Temperatures

Lokasi Temperatur

Stations

Nearby Weather Stations

Station Location Temp Angin Dingin Titik Embun Kelembaban Angin Precip. Elev Telah Diperbaharui Type
                   

Watches & Warnings

There are currently no watches in effect.